sensor_id;sensor_type;location;lat;lon;timestamp;P1;durP1;ratioP1;P2;durP2;ratioP2
4583;SDS011;2304;47.606;12.186;2023-02-15T00:01:55;14.13;;;7.57;;
4583;SDS011;2304;47.606;12.186;2023-02-15T00:06:57;12.87;;;7.23;;
4583;SDS011;2304;47.606;12.186;2023-02-15T00:11:59;10.63;;;6.90;;
4583;SDS011;2304;47.606;12.186;2023-02-15T00:17:02;10.53;;;6.23;;
4583;SDS011;2304;47.606;12.186;2023-02-15T00:22:04;13.50;;;7.23;;
4583;SDS011;2304;47.606;12.186;2023-02-15T00:27:06;12.00;;;7.20;;
4583;SDS011;2304;47.606;12.186;2023-02-15T00:32:10;13.80;;;8.20;;
4583;SDS011;2304;47.606;12.186;2023-02-15T00:37:12;10.23;;;7.27;;
4583;SDS011;2304;47.606;12.186;2023-02-15T00:42:14;13.00;;;7.67;;
4583;SDS011;2304;47.606;12.186;2023-02-15T00:47:17;14.20;;;8.67;;
4583;SDS011;2304;47.606;12.186;2023-02-15T00:52:19;13.23;;;8.40;;
4583;SDS011;2304;47.606;12.186;2023-02-15T00:57:20;13.30;;;7.90;;
4583;SDS011;2304;47.606;12.186;2023-02-15T01:02:23;10.20;;;7.10;;
4583;SDS011;2304;47.606;12.186;2023-02-15T01:07:25;13.60;;;7.70;;
4583;SDS011;2304;47.606;12.186;2023-02-15T01:12:27;15.77;;;7.20;;
4583;SDS011;2304;47.606;12.186;2023-02-15T01:17:30;10.70;;;6.50;;
4583;SDS011;2304;47.606;12.186;2023-02-15T01:22:32;11.60;;;6.70;;
4583;SDS011;2304;47.606;12.186;2023-02-15T01:27:34;12.33;;;6.83;;
4583;SDS011;2304;47.606;12.186;2023-02-15T01:32:37;13.50;;;7.10;;
4583;SDS011;2304;47.606;12.186;2023-02-15T01:37:39;12.30;;;7.30;;
4583;SDS011;2304;47.606;12.186;2023-02-15T01:42:41;12.17;;;7.50;;
4583;SDS011;2304;47.606;12.186;2023-02-15T01:47:45;12.30;;;7.20;;
4583;SDS011;2304;47.606;12.186;2023-02-15T01:52:50;13.83;;;7.10;;
4583;SDS011;2304;47.606;12.186;2023-02-15T01:57:55;14.33;;;7.23;;
4583;SDS011;2304;47.606;12.186;2023-02-15T02:02:59;12.87;;;7.80;;
4583;SDS011;2304;47.606;12.186;2023-02-15T02:08:02;15.80;;;7.10;;
4583;SDS011;2304;47.606;12.186;2023-02-15T02:13:05;11.57;;;7.40;;
4583;SDS011;2304;47.606;12.186;2023-02-15T02:18:12;10.20;;;6.70;;
4583;SDS011;2304;47.606;12.186;2023-02-15T02:23:24;16.63;;;6.80;;
4583;SDS011;2304;47.606;12.186;2023-02-15T02:28:50;8.57;;;5.60;;
4583;SDS011;2304;47.606;12.186;2023-02-15T02:34:11;9.23;;;6.43;;
4583;SDS011;2304;47.606;12.186;2023-02-15T02:39:22;9.80;;;5.87;;
4583;SDS011;2304;47.606;12.186;2023-02-15T02:44:31;10.47;;;5.83;;
4583;SDS011;2304;47.606;12.186;2023-02-15T02:49:44;9.93;;;6.13;;
4583;SDS011;2304;47.606;12.186;2023-02-15T02:54:46;12.53;;;6.53;;
4583;SDS011;2304;47.606;12.186;2023-02-15T02:59:48;9.00;;;5.90;;
4583;SDS011;2304;47.606;12.186;2023-02-15T03:04:54;12.97;;;6.33;;
4583;SDS011;2304;47.606;12.186;2023-02-15T03:10:04;10.60;;;6.20;;
4583;SDS011;2304;47.606;12.186;2023-02-15T03:15:08;9.73;;;5.90;;
4583;SDS011;2304;47.606;12.186;2023-02-15T03:20:16;11.17;;;6.40;;
4583;SDS011;2304;47.606;12.186;2023-02-15T03:25:25;9.77;;;6.20;;
4583;SDS011;2304;47.606;12.186;2023-02-15T03:30:32;8.63;;;5.80;;
4583;SDS011;2304;47.606;12.186;2023-02-15T03:35:39;12.30;;;5.50;;
4583;SDS011;2304;47.606;12.186;2023-02-15T03:40:47;7.47;;;5.40;;
4583;SDS011;2304;47.606;12.186;2023-02-15T03:46:07;9.47;;;5.73;;
4583;SDS011;2304;47.606;12.186;2023-02-15T03:51:17;9.67;;;5.10;;
4583;SDS011;2304;47.606;12.186;2023-02-15T03:56:36;7.53;;;5.37;;
4583;SDS011;2304;47.606;12.186;2023-02-15T04:01:40;10.60;;;5.30;;
4583;SDS011;2304;47.606;12.186;2023-02-15T04:07:02;11.83;;;5.87;;
4583;SDS011;2304;47.606;12.186;2023-02-15T04:12:05;9.53;;;6.27;;
4583;SDS011;2304;47.606;12.186;2023-02-15T04:17:08;10.20;;;4.90;;
4583;SDS011;2304;47.606;12.186;2023-02-15T04:22:11;8.90;;;6.10;;
4583;SDS011;2304;47.606;12.186;2023-02-15T04:27:31;8.93;;;5.20;;
4583;SDS011;2304;47.606;12.186;2023-02-15T04:32:33;10.63;;;6.07;;
4583;SDS011;2304;47.606;12.186;2023-02-15T04:37:37;9.13;;;5.70;;
4583;SDS011;2304;47.606;12.186;2023-02-15T04:42:39;14.33;;;5.80;;
4583;SDS011;2304;47.606;12.186;2023-02-15T04:47:41;10.67;;;6.37;;
4583;SDS011;2304;47.606;12.186;2023-02-15T04:52:44;9.43;;;5.50;;
4583;SDS011;2304;47.606;12.186;2023-02-15T04:57:46;9.10;;;5.67;;
4583;SDS011;2304;47.606;12.186;2023-02-15T05:02:48;9.33;;;5.80;;
4583;SDS011;2304;47.606;12.186;2023-02-15T05:07:51;11.93;;;6.20;;
4583;SDS011;2304;47.606;12.186;2023-02-15T05:12:53;10.50;;;5.80;;
4583;SDS011;2304;47.606;12.186;2023-02-15T05:17:55;7.43;;;5.77;;
4583;SDS011;2304;47.606;12.186;2023-02-15T05:22:58;10.60;;;5.77;;
4583;SDS011;2304;47.606;12.186;2023-02-15T05:27:59;10.60;;;6.60;;
4583;SDS011;2304;47.606;12.186;2023-02-15T05:33:19;14.77;;;7.20;;
4583;SDS011;2304;47.606;12.186;2023-02-15T05:38:22;11.60;;;7.13;;
4583;SDS011;2304;47.606;12.186;2023-02-15T05:43:24;17.33;;;8.57;;
4583;SDS011;2304;47.606;12.186;2023-02-15T05:48:27;34.40;;;16.10;;
4583;SDS011;2304;47.606;12.186;2023-02-15T05:53:30;19.80;;;9.63;;
4583;SDS011;2304;47.606;12.186;2023-02-15T05:58:34;13.93;;;7.57;;
4583;SDS011;2304;47.606;12.186;2023-02-15T06:03:37;19.93;;;9.50;;
4583;SDS011;2304;47.606;12.186;2023-02-15T06:08:41;16.43;;;8.17;;
4583;SDS011;2304;47.606;12.186;2023-02-15T06:13:43;12.17;;;7.13;;
4583;SDS011;2304;47.606;12.186;2023-02-15T06:18:45;20.83;;;10.83;;
4583;SDS011;2304;47.606;12.186;2023-02-15T06:23:48;24.33;;;13.27;;
4583;SDS011;2304;47.606;12.186;2023-02-15T06:28:49;45.67;;;19.50;;
4583;SDS011;2304;47.606;12.186;2023-02-15T06:33:51;25.30;;;11.50;;
4583;SDS011;2304;47.606;12.186;2023-02-15T06:39:02;20.10;;;11.07;;
4583;SDS011;2304;47.606;12.186;2023-02-15T06:44:04;29.23;;;12.83;;
4583;SDS011;2304;47.606;12.186;2023-02-15T06:49:06;16.50;;;9.93;;
4583;SDS011;2304;47.606;12.186;2023-02-15T06:54:09;18.23;;;9.70;;
4583;SDS011;2304;47.606;12.186;2023-02-15T06:59:11;20.03;;;11.93;;
4583;SDS011;2304;47.606;12.186;2023-02-15T07:04:12;18.60;;;10.80;;
4583;SDS011;2304;47.606;12.186;2023-02-15T07:09:15;23.87;;;11.20;;
4583;SDS011;2304;47.606;12.186;2023-02-15T07:14:17;14.27;;;9.40;;
4583;SDS011;2304;47.606;12.186;2023-02-15T07:19:19;16.23;;;10.33;;
4583;SDS011;2304;47.606;12.186;2023-02-15T07:24:23;17.43;;;10.70;;
4583;SDS011;2304;47.606;12.186;2023-02-15T07:29:25;14.83;;;9.10;;
4583;SDS011;2304;47.606;12.186;2023-02-15T07:34:26;19.07;;;10.60;;
4583;SDS011;2304;47.606;12.186;2023-02-15T07:39:29;17.97;;;9.67;;
4583;SDS011;2304;47.606;12.186;2023-02-15T07:44:31;13.73;;;9.77;;
4583;SDS011;2304;47.606;12.186;2023-02-15T07:49:33;17.53;;;10.20;;
4583;SDS011;2304;47.606;12.186;2023-02-15T07:54:37;17.77;;;9.00;;
4583;SDS011;2304;47.606;12.186;2023-02-15T07:59:38;20.60;;;9.30;;
4583;SDS011;2304;47.606;12.186;2023-02-15T08:04:40;22.40;;;10.70;;
4583;SDS011;2304;47.606;12.186;2023-02-15T08:09:43;17.93;;;11.03;;
4583;SDS011;2304;47.606;12.186;2023-02-15T08:14:45;17.93;;;10.70;;
4583;SDS011;2304;47.606;12.186;2023-02-15T08:19:47;15.73;;;9.00;;
4583;SDS011;2304;47.606;12.186;2023-02-15T08:24:50;15.00;;;8.53;;
4583;SDS011;2304;47.606;12.186;2023-02-15T08:29:52;15.30;;;9.00;;
4583;SDS011;2304;47.606;12.186;2023-02-15T08:34:54;15.97;;;8.73;;
4583;SDS011;2304;47.606;12.186;2023-02-15T08:39:57;9.53;;;7.80;;
4583;SDS011;2304;47.606;12.186;2023-02-15T08:44:58;13.70;;;6.17;;
4583;SDS011;2304;47.606;12.186;2023-02-15T08:50:01;11.43;;;6.50;;
4583;SDS011;2304;47.606;12.186;2023-02-15T08:55:06;8.13;;;5.90;;
4583;SDS011;2304;47.606;12.186;2023-02-15T09:00:08;12.03;;;9.00;;
4583;SDS011;2304;47.606;12.186;2023-02-15T09:05:11;11.07;;;6.87;;
4583;SDS011;2304;47.606;12.186;2023-02-15T09:10:15;13.97;;;8.50;;
4583;SDS011;2304;47.606;12.186;2023-02-15T09:15:17;8.87;;;5.10;;
4583;SDS011;2304;47.606;12.186;2023-02-15T09:20:18;7.70;;;4.73;;
4583;SDS011;2304;47.606;12.186;2023-02-15T09:25:23;6.13;;;4.40;;
4583;SDS011;2304;47.606;12.186;2023-02-15T09:30:24;9.70;;;5.07;;
4583;SDS011;2304;47.606;12.186;2023-02-15T09:35:26;8.73;;;5.10;;
4583;SDS011;2304;47.606;12.186;2023-02-15T09:40:29;8.70;;;4.70;;
4583;SDS011;2304;47.606;12.186;2023-02-15T09:45:41;6.20;;;3.77;;
4583;SDS011;2304;47.606;12.186;2023-02-15T09:50:54;6.63;;;3.87;;
4583;SDS011;2304;47.606;12.186;2023-02-15T09:56:12;13.87;;;4.37;;
4583;SDS011;2304;47.606;12.186;2023-02-15T10:01:21;11.20;;;4.03;;
4583;SDS011;2304;47.606;12.186;2023-02-15T10:06:32;12.00;;;3.70;;
4583;SDS011;2304;47.606;12.186;2023-02-15T10:11:46;9.57;;;3.73;;
4583;SDS011;2304;47.606;12.186;2023-02-15T10:17:00;9.17;;;3.60;;
4583;SDS011;2304;47.606;12.186;2023-02-15T10:22:16;4.80;;;3.07;;
4583;SDS011;2304;47.606;12.186;2023-02-15T10:27:27;6.33;;;2.93;;
4583;SDS011;2304;47.606;12.186;2023-02-15T10:32:32;6.20;;;4.20;;
4583;SDS011;2304;47.606;12.186;2023-02-15T10:37:44;5.37;;;3.70;;
4583;SDS011;2304;47.606;12.186;2023-02-15T10:42:59;6.60;;;3.67;;
4583;SDS011;2304;47.606;12.186;2023-02-15T10:53:57;4.37;;;3.20;;
4583;SDS011;2304;47.606;12.186;2023-02-15T10:59:17;5.10;;;3.43;;
4583;SDS011;2304;47.606;12.186;2023-02-15T11:04:32;5.87;;;3.30;;
4583;SDS011;2304;47.606;12.186;2023-02-15T11:09:47;6.50;;;3.30;;
4583;SDS011;2304;47.606;12.186;2023-02-15T11:14:56;6.00;;;3.27;;
4583;SDS011;2304;47.606;12.186;2023-02-15T11:20:05;5.60;;;2.87;;
4583;SDS011;2304;47.606;12.186;2023-02-15T11:25:17;5.83;;;2.60;;
4583;SDS011;2304;47.606;12.186;2023-02-15T11:30:23;7.90;;;3.57;;
4583;SDS011;2304;47.606;12.186;2023-02-15T11:35:29;3.73;;;2.50;;
4583;SDS011;2304;47.606;12.186;2023-02-15T11:40:46;4.30;;;2.70;;
4583;SDS011;2304;47.606;12.186;2023-02-15T11:45:50;4.30;;;2.57;;
4583;SDS011;2304;47.606;12.186;2023-02-15T11:50:52;5.37;;;2.93;;
4583;SDS011;2304;47.606;12.186;2023-02-15T11:55:54;4.77;;;3.33;;
4583;SDS011;2304;47.606;12.186;2023-02-15T12:01:00;3.97;;;2.80;;
4583;SDS011;2304;47.606;12.186;2023-02-15T12:06:11;7.03;;;3.60;;
4583;SDS011;2304;47.606;12.186;2023-02-15T12:11:19;7.53;;;3.10;;
4583;SDS011;2304;47.606;12.186;2023-02-15T12:16:28;5.53;;;2.90;;
4583;SDS011;2304;47.606;12.186;2023-02-15T12:21:39;4.83;;;3.20;;
4583;SDS011;2304;47.606;12.186;2023-02-15T12:26:42;4.53;;;3.27;;
4583;SDS011;2304;47.606;12.186;2023-02-15T12:31:46;4.60;;;3.07;;
4583;SDS011;2304;47.606;12.186;2023-02-15T12:36:52;3.90;;;2.90;;
4583;SDS011;2304;47.606;12.186;2023-02-15T12:41:59;9.10;;;3.57;;
4583;SDS011;2304;47.606;12.186;2023-02-15T12:47:05;4.50;;;2.40;;
4583;SDS011;2304;47.606;12.186;2023-02-15T12:52:23;4.93;;;3.17;;
4583;SDS011;2304;47.606;12.186;2023-02-15T12:57:26;5.17;;;3.40;;
4583;SDS011;2304;47.606;12.186;2023-02-15T13:02:35;4.90;;;3.37;;
4583;SDS011;2304;47.606;12.186;2023-02-15T13:07:44;5.70;;;3.43;;
4583;SDS011;2304;47.606;12.186;2023-02-15T13:12:49;4.63;;;3.13;;
4583;SDS011;2304;47.606;12.186;2023-02-15T13:17:56;4.10;;;2.60;;
4583;SDS011;2304;47.606;12.186;2023-02-15T13:23:00;7.77;;;2.77;;
4583;SDS011;2304;47.606;12.186;2023-02-15T13:28:05;8.80;;;5.30;;
4583;SDS011;2304;47.606;12.186;2023-02-15T13:33:16;10.87;;;5.97;;
4583;SDS011;2304;47.606;12.186;2023-02-15T13:38:32;20.20;;;12.13;;
4583;SDS011;2304;47.606;12.186;2023-02-15T13:43:49;15.83;;;9.50;;
4583;SDS011;2304;47.606;12.186;2023-02-15T13:49:03;16.33;;;11.60;;
4583;SDS011;2304;47.606;12.186;2023-02-15T13:59:53;19.30;;;13.73;;
4583;SDS011;2304;47.606;12.186;2023-02-15T14:05:29;14.47;;;11.20;;
4583;SDS011;2304;47.606;12.186;2023-02-15T14:10:39;22.40;;;16.03;;
4583;SDS011;2304;47.606;12.186;2023-02-15T14:15:50;14.43;;;9.53;;
4583;SDS011;2304;47.606;12.186;2023-02-15T14:21:02;13.97;;;9.80;;
4583;SDS011;2304;47.606;12.186;2023-02-15T14:26:09;12.40;;;9.00;;
4583;SDS011;2304;47.606;12.186;2023-02-15T14:31:16;13.37;;;8.50;;
4583;SDS011;2304;47.606;12.186;2023-02-15T14:36:24;17.90;;;11.67;;
4583;SDS011;2304;47.606;12.186;2023-02-15T14:41:31;16.73;;;9.57;;
4583;SDS011;2304;47.606;12.186;2023-02-15T14:46:40;21.60;;;15.00;;
4583;SDS011;2304;47.606;12.186;2023-02-15T14:51:59;14.87;;;9.80;;
4583;SDS011;2304;47.606;12.186;2023-02-15T14:57:24;16.77;;;9.57;;
4583;SDS011;2304;47.606;12.186;2023-02-15T15:02:29;13.50;;;9.57;;
4583;SDS011;2304;47.606;12.186;2023-02-15T15:07:44;20.33;;;10.90;;
4583;SDS011;2304;47.606;12.186;2023-02-15T15:12:47;16.77;;;10.83;;
4583;SDS011;2304;47.606;12.186;2023-02-15T15:17:57;18.47;;;10.93;;
4583;SDS011;2304;47.606;12.186;2023-02-15T15:29:00;16.23;;;10.43;;
4583;SDS011;2304;47.606;12.186;2023-02-15T15:34:19;15.50;;;10.90;;
4583;SDS011;2304;47.606;12.186;2023-02-15T15:45:35;20.60;;;10.80;;
4583;SDS011;2304;47.606;12.186;2023-02-15T15:50:57;19.87;;;11.00;;
4583;SDS011;2304;47.606;12.186;2023-02-15T15:56:01;15.63;;;10.07;;
4583;SDS011;2304;47.606;12.186;2023-02-15T16:01:08;13.43;;;11.10;;
4583;SDS011;2304;47.606;12.186;2023-02-15T16:06:13;16.43;;;11.37;;
4583;SDS011;2304;47.606;12.186;2023-02-15T16:11:27;16.57;;;12.00;;
4583;SDS011;2304;47.606;12.186;2023-02-15T16:16:32;17.53;;;11.13;;
4583;SDS011;2304;47.606;12.186;2023-02-15T16:21:34;23.40;;;14.57;;
4583;SDS011;2304;47.606;12.186;2023-02-15T16:26:48;101.60;;;32.43;;
4583;SDS011;2304;47.606;12.186;2023-02-15T16:32:17;94.40;;;42.03;;
4583;SDS011;2304;47.606;12.186;2023-02-15T16:37:21;94.13;;;34.07;;
4583;SDS011;2304;47.606;12.186;2023-02-15T16:42:26;48.47;;;22.50;;
4583;SDS011;2304;47.606;12.186;2023-02-15T16:47:30;18.00;;;9.77;;
4583;SDS011;2304;47.606;12.186;2023-02-15T16:52:34;18.70;;;14.07;;
4583;SDS011;2304;47.606;12.186;2023-02-15T16:57:36;22.67;;;15.13;;
4583;SDS011;2304;47.606;12.186;2023-02-15T17:02:53;31.23;;;17.67;;
4583;SDS011;2304;47.606;12.186;2023-02-15T17:08:10;34.83;;;21.93;;
4583;SDS011;2304;47.606;12.186;2023-02-15T17:13:16;34.83;;;21.50;;
4583;SDS011;2304;47.606;12.186;2023-02-15T17:18:21;43.53;;;23.70;;
4583;SDS011;2304;47.606;12.186;2023-02-15T17:23:25;38.47;;;23.53;;
4583;SDS011;2304;47.606;12.186;2023-02-15T17:28:31;26.17;;;15.80;;
4583;SDS011;2304;47.606;12.186;2023-02-15T17:33:37;24.67;;;15.90;;
4583;SDS011;2304;47.606;12.186;2023-02-15T17:38:41;65.13;;;32.50;;
4583;SDS011;2304;47.606;12.186;2023-02-15T17:44:02;62.87;;;28.93;;
4583;SDS011;2304;47.606;12.186;2023-02-15T17:49:06;88.53;;;42.80;;
4583;SDS011;2304;47.606;12.186;2023-02-15T17:54:08;72.17;;;34.43;;
4583;SDS011;2304;47.606;12.186;2023-02-15T17:59:27;36.43;;;24.57;;
4583;SDS011;2304;47.606;12.186;2023-02-15T18:04:31;25.57;;;14.63;;
4583;SDS011;2304;47.606;12.186;2023-02-15T18:09:52;20.70;;;13.43;;
4583;SDS011;2304;47.606;12.186;2023-02-15T18:15:11;21.00;;;13.50;;
4583;SDS011;2304;47.606;12.186;2023-02-15T18:25:21;23.77;;;14.03;;
4583;SDS011;2304;47.606;12.186;2023-02-15T18:30:24;46.07;;;19.13;;
4583;SDS011;2304;47.606;12.186;2023-02-15T18:35:29;61.23;;;26.80;;
4583;SDS011;2304;47.606;12.186;2023-02-15T18:40:32;34.47;;;15.70;;
4583;SDS011;2304;47.606;12.186;2023-02-15T18:45:34;34.17;;;17.70;;
4583;SDS011;2304;47.606;12.186;2023-02-15T18:50:37;25.53;;;16.10;;
4583;SDS011;2304;47.606;12.186;2023-02-15T18:55:39;25.93;;;11.80;;
4583;SDS011;2304;47.606;12.186;2023-02-15T19:00:41;16.77;;;9.10;;
4583;SDS011;2304;47.606;12.186;2023-02-15T19:05:45;14.60;;;7.63;;
4583;SDS011;2304;47.606;12.186;2023-02-15T19:10:48;39.43;;;19.10;;
4583;SDS011;2304;47.606;12.186;2023-02-15T19:15:50;28.43;;;15.67;;
4583;SDS011;2304;47.606;12.186;2023-02-15T19:20:53;27.80;;;14.30;;
4583;SDS011;2304;47.606;12.186;2023-02-15T19:25:55;17.67;;;9.77;;
4583;SDS011;2304;47.606;12.186;2023-02-15T19:30:56;19.90;;;9.20;;
4583;SDS011;2304;47.606;12.186;2023-02-15T19:36:00;15.83;;;10.37;;
4583;SDS011;2304;47.606;12.186;2023-02-15T19:41:03;17.57;;;12.60;;
4583;SDS011;2304;47.606;12.186;2023-02-15T19:46:08;24.00;;;12.80;;
4583;SDS011;2304;47.606;12.186;2023-02-15T19:51:16;15.40;;;7.60;;
4583;SDS011;2304;47.606;12.186;2023-02-15T19:56:19;10.90;;;6.70;;
4583;SDS011;2304;47.606;12.186;2023-02-15T20:01:22;19.07;;;10.13;;
4583;SDS011;2304;47.606;12.186;2023-02-15T20:06:25;14.70;;;8.90;;
4583;SDS011;2304;47.606;12.186;2023-02-15T20:11:27;21.20;;;10.47;;
4583;SDS011;2304;47.606;12.186;2023-02-15T20:16:29;18.47;;;8.87;;
4583;SDS011;2304;47.606;12.186;2023-02-15T20:21:32;19.10;;;11.77;;
4583;SDS011;2304;47.606;12.186;2023-02-15T20:26:35;17.30;;;11.47;;
4583;SDS011;2304;47.606;12.186;2023-02-15T20:31:36;122.30;;;38.50;;
4583;SDS011;2304;47.606;12.186;2023-02-15T20:36:40;29.50;;;13.57;;
4583;SDS011;2304;47.606;12.186;2023-02-15T20:41:42;26.70;;;13.30;;
4583;SDS011;2304;47.606;12.186;2023-02-15T20:46:47;36.67;;;17.23;;
4583;SDS011;2304;47.606;12.186;2023-02-15T20:51:51;50.40;;;25.10;;
4583;SDS011;2304;47.606;12.186;2023-02-15T20:56:54;33.67;;;18.07;;
4583;SDS011;2304;47.606;12.186;2023-02-15T21:01:57;33.57;;;15.60;;
4583;SDS011;2304;47.606;12.186;2023-02-15T21:07:02;26.80;;;11.23;;
4583;SDS011;2304;47.606;12.186;2023-02-15T21:12:04;22.60;;;11.10;;
4583;SDS011;2304;47.606;12.186;2023-02-15T21:17:12;17.17;;;9.60;;
4583;SDS011;2304;47.606;12.186;2023-02-15T21:22:17;17.03;;;9.30;;
4583;SDS011;2304;47.606;12.186;2023-02-15T21:27:20;22.83;;;10.53;;
4583;SDS011;2304;47.606;12.186;2023-02-15T21:32:22;18.17;;;10.90;;
4583;SDS011;2304;47.606;12.186;2023-02-15T21:37:27;29.67;;;13.03;;
4583;SDS011;2304;47.606;12.186;2023-02-15T21:42:32;25.53;;;12.90;;
4583;SDS011;2304;47.606;12.186;2023-02-15T21:47:52;19.63;;;9.50;;
4583;SDS011;2304;47.606;12.186;2023-02-15T21:52:55;21.23;;;10.53;;
4583;SDS011;2304;47.606;12.186;2023-02-15T21:57:57;22.87;;;11.00;;
4583;SDS011;2304;47.606;12.186;2023-02-15T22:02:59;17.60;;;10.77;;
4583;SDS011;2304;47.606;12.186;2023-02-15T22:08:04;16.33;;;9.80;;
4583;SDS011;2304;47.606;12.186;2023-02-15T22:13:12;15.43;;;9.47;;
4583;SDS011;2304;47.606;12.186;2023-02-15T22:18:17;15.60;;;9.87;;
4583;SDS011;2304;47.606;12.186;2023-02-15T22:23:23;15.13;;;9.20;;
4583;SDS011;2304;47.606;12.186;2023-02-15T22:28:26;20.67;;;10.90;;
4583;SDS011;2304;47.606;12.186;2023-02-15T22:33:32;14.53;;;8.33;;
4583;SDS011;2304;47.606;12.186;2023-02-15T22:38:36;19.53;;;9.97;;
4583;SDS011;2304;47.606;12.186;2023-02-15T22:43:38;12.80;;;7.70;;
4583;SDS011;2304;47.606;12.186;2023-02-15T22:48:42;11.43;;;7.47;;
4583;SDS011;2304;47.606;12.186;2023-02-15T22:53:46;13.80;;;7.80;;
4583;SDS011;2304;47.606;12.186;2023-02-15T22:58:50;17.90;;;8.40;;
4583;SDS011;2304;47.606;12.186;2023-02-15T23:03:54;22.63;;;8.87;;
4583;SDS011;2304;47.606;12.186;2023-02-15T23:08:57;16.17;;;8.60;;
4583;SDS011;2304;47.606;12.186;2023-02-15T23:14:00;15.10;;;9.10;;
4583;SDS011;2304;47.606;12.186;2023-02-15T23:19:02;14.43;;;8.10;;
4583;SDS011;2304;47.606;12.186;2023-02-15T23:24:11;12.40;;;7.03;;
4583;SDS011;2304;47.606;12.186;2023-02-15T23:29:19;13.30;;;8.10;;
4583;SDS011;2304;47.606;12.186;2023-02-15T23:34:23;16.00;;;7.27;;
4583;SDS011;2304;47.606;12.186;2023-02-15T23:39:29;16.00;;;8.23;;
4583;SDS011;2304;47.606;12.186;2023-02-15T23:44:48;57.63;;;16.63;;
4583;SDS011;2304;47.606;12.186;2023-02-15T23:49:50;14.57;;;7.53;;
4583;SDS011;2304;47.606;12.186;2023-02-15T23:54:53;14.90;;;8.43;;
4583;SDS011;2304;47.606;12.186;2023-02-15T23:59:55;12.40;;;7.30;;
